createdAt,value
2022-10-15T00:00:15.121Z,76.31
2022-10-15T00:03:05.811Z,76.23
2022-10-15T00:05:37.597Z,75.69
2022-10-15T00:08:08.318Z,76.17
2022-10-15T00:10:38.801Z,76.59
2022-10-15T00:13:08.107Z,75.89
2022-10-15T00:15:38.855Z,75.81
2022-10-15T00:18:09.888Z,76.66
2022-10-15T00:20:42.249Z,76.61
2022-10-15T00:23:11.790Z,75.98
2022-10-15T00:25:42.286Z,76.65
2022-10-15T00:28:11.603Z,76.72
2022-10-15T00:30:41.193Z,76.53
2022-10-15T00:33:11.863Z,76.44
2022-10-15T00:35:41.412Z,76.32
2022-10-15T00:38:10.664Z,76.50
2022-10-15T00:40:43.125Z,76.06
2022-10-15T00:43:13.323Z,76.02
2022-10-15T00:45:42.750Z,75.82
2022-10-15T00:48:13.491Z,75.99
2022-10-15T00:50:43.067Z,76.32
2022-10-15T00:53:12.599Z,76.12
2022-10-15T00:55:44.332Z,76.39
2022-10-15T00:58:17.444Z,76.71
2022-10-15T01:00:47.634Z,76.47
2022-10-15T01:03:18.562Z,76.11
2022-10-15T01:05:49.090Z,76.70
2022-10-15T01:08:19.029Z,76.94
2022-10-15T01:10:58.360Z,76.33
2022-10-15T01:13:37.998Z,76.85
2022-10-15T01:18:58.041Z,77.09
2022-10-15T01:21:35.177Z,76.16
2022-10-15T01:24:40.279Z,76.14
2022-10-15T01:27:28.846Z,77.70
2022-10-15T01:30:24.832Z,77.50
2022-10-15T01:33:18.526Z,78.22
2022-10-15T01:35:51.504Z,77.59
2022-10-15T01:38:31.430Z,77.25
2022-10-15T01:41:09.384Z,77.41
2022-10-15T01:43:45.171Z,77.40
2022-10-15T01:46:48.037Z,77.12
2022-10-15T01:49:28.989Z,77.39
2022-10-15T01:52:01.413Z,77.59
2022-10-15T01:54:32.538Z,77.30
2022-10-15T01:57:04.268Z,77.54
2022-10-15T01:59:35.489Z,77.60
2022-10-15T02:02:06.402Z,77.29
2022-10-15T02:04:35.693Z,77.50
2022-10-15T02:07:08.371Z,77.79
2022-10-15T02:09:47.186Z,77.23
2022-10-15T02:12:33.245Z,77.38
2022-10-15T02:15:10.318Z,76.70
2022-10-15T02:17:43.768Z,77.13
2022-10-15T02:20:20.980Z,77.24
2022-10-15T02:22:55.570Z,77.22
2022-10-15T02:25:27.123Z,76.87
2022-10-15T02:27:58.993Z,76.97
2022-10-15T02:35:55.996Z,76.84
2022-10-15T02:38:30.086Z,77.95
2022-10-15T02:40:59.990Z,77.50
2022-10-15T02:43:30.014Z,76.98
2022-10-15T02:45:59.384Z,76.94
2022-10-15T02:48:28.764Z,78.17
2022-10-15T02:50:59.682Z,77.68
2022-10-15T02:53:28.912Z,77.42
2022-10-15T02:55:58.595Z,77.00
2022-10-15T02:58:29.246Z,77.35
2022-10-15T03:00:59.188Z,77.13
2022-10-15T03:03:28.748Z,77.13
2022-10-15T03:05:59.626Z,77.22
2022-10-15T03:08:28.948Z,77.31
2022-10-15T03:11:01.059Z,77.24
2022-10-15T03:13:30.951Z,77.01
2022-10-15T03:16:00.519Z,77.03
2022-10-15T03:18:29.942Z,77.22
2022-10-15T03:21:01.497Z,77.39
2022-10-15T03:23:31.378Z,77.18
2022-10-15T03:26:09.895Z,77.31
2022-10-15T03:28:40.394Z,78.58
2022-10-15T03:31:09.874Z,78.60
2022-10-15T03:33:39.245Z,77.73
2022-10-15T03:36:11.578Z,77.78
2022-10-15T03:38:40.975Z,77.84
2022-10-15T03:41:15.073Z,78.27
2022-10-15T03:43:45.297Z,78.06
2022-10-15T03:46:15.841Z,78.19
2022-10-15T03:48:51.071Z,77.70
2022-10-15T03:51:25.578Z,77.63
2022-10-15T03:54:04.603Z,77.41
2022-10-15T03:56:36.230Z,77.19
2022-10-15T03:59:21.301Z,78.30
2022-10-15T04:01:58.816Z,77.68
2022-10-15T04:04:28.927Z,77.21
2022-10-15T04:06:59.779Z,77.15
2022-10-15T04:09:30.759Z,76.94
2022-10-15T04:12:20.445Z,77.34
2022-10-15T04:14:50.286Z,77.13
2022-10-15T04:17:19.914Z,77.44
2022-10-15T04:19:49.539Z,78.16
2022-10-15T04:22:21.363Z,81.03
2022-10-15T04:24:55.286Z,78.85
2022-10-15T04:27:31.326Z,78.11
2022-10-15T04:30:19.673Z,77.86
2022-10-15T04:32:55.225Z,77.58
2022-10-15T04:35:25.584Z,77.62
2022-10-15T04:38:04.195Z,77.90
2022-10-15T04:41:01.808Z,77.48
2022-10-15T04:43:41.863Z,78.72
2022-10-15T04:46:13.874Z,78.42
2022-10-15T04:48:43.542Z,78.25
2022-10-15T04:51:18.222Z,78.12
2022-10-15T04:54:04.346Z,77.37
2022-10-15T04:56:34.617Z,78.11
2022-10-15T04:59:07.578Z,78.57
2022-10-15T05:01:47.162Z,80.26
2022-10-15T05:04:17.253Z,77.94
2022-10-15T05:06:46.531Z,77.89
2022-10-15T05:09:21.706Z,77.40
2022-10-15T05:11:53.366Z,77.90
2022-10-15T05:14:22.767Z,77.96
2022-10-15T05:17:07.395Z,78.24
2022-10-15T05:19:43.034Z,79.53
2022-10-15T05:22:19.511Z,79.53
2022-10-15T05:24:55.571Z,77.74
2022-10-15T05:27:30.194Z,78.50
2022-10-15T05:29:59.657Z,78.21
2022-10-15T05:32:37.791Z,79.02
2022-10-15T05:35:08.899Z,81.18
2022-10-15T05:37:56.370Z,79.85
2022-10-15T05:40:27.830Z,79.89
2022-10-15T05:43:15.441Z,79.78
2022-10-15T05:45:44.955Z,79.36
2022-10-15T05:48:15.282Z,80.34
2022-10-15T05:50:45.014Z,80.57
2022-10-15T05:53:21.478Z,81.16
2022-10-15T05:55:56.612Z,82.05
2022-10-15T05:58:33.285Z,82.11
2022-10-15T06:01:06.078Z,82.67
2022-10-15T06:03:36.057Z,82.07
2022-10-15T06:06:05.871Z,80.98
2022-10-15T06:08:38.147Z,80.37
2022-10-15T06:11:09.705Z,80.49
2022-10-15T06:13:40.777Z,80.04
2022-10-15T06:16:10.835Z,80.53
2022-10-15T06:18:40.228Z,81.28
2022-10-15T06:21:13.389Z,80.47
2022-10-15T06:23:42.847Z,81.08
2022-10-15T06:26:14.086Z,81.25
2022-10-15T06:28:44.499Z,81.85
2022-10-15T06:31:13.773Z,82.67
2022-10-15T06:33:43.234Z,82.40
2022-10-15T06:36:14.455Z,82.24
2022-10-15T06:38:44.948Z,82.99
2022-10-15T06:41:16.684Z,82.92
2022-10-15T06:43:46.254Z,82.27
2022-10-15T06:46:16.382Z,82.06
2022-10-15T06:48:45.697Z,82.83
2022-10-15T06:51:15.061Z,82.15
2022-10-15T06:53:52.046Z,81.41
2022-10-15T06:56:22.758Z,81.86
2022-10-15T06:58:52.273Z,82.31
2022-10-15T07:01:21.596Z,82.45
2022-10-15T07:03:51.651Z,82.53
2022-10-15T07:06:21.179Z,81.74
2022-10-15T07:08:50.745Z,81.53
2022-10-15T07:11:21.306Z,79.96
2022-10-15T07:13:50.885Z,79.46
2022-10-15T07:16:20.093Z,79.31
2022-10-15T07:18:50.213Z,79.07
2022-10-15T07:21:19.693Z,77.83
2022-10-15T07:23:49.066Z,77.72
2022-10-15T07:26:18.515Z,76.84
2022-10-15T07:28:49.444Z,76.23
2022-10-15T07:31:18.723Z,77.45
2022-10-15T07:33:47.991Z,76.81
2022-10-15T07:36:17.975Z,77.97
2022-10-15T07:38:47.227Z,78.26
2022-10-15T07:41:16.561Z,78.38
2022-10-15T07:43:46.540Z,79.78
2022-10-15T07:46:17.198Z,78.19
2022-10-15T07:48:46.627Z,77.69
2022-10-15T07:53:50.565Z,75.38
2022-10-15T07:56:20.159Z,77.03
2022-10-15T07:58:52.022Z,76.68
2022-10-15T08:01:23.304Z,75.39
2022-10-15T08:03:52.571Z,74.62
2022-10-15T08:06:22.159Z,75.75
2022-10-15T08:08:51.812Z,74.19
2022-10-15T08:11:21.087Z,73.85
2022-10-15T08:13:50.504Z,73.87
2022-10-15T08:16:21.173Z,74.37
2022-10-15T08:19:00.950Z,75.49
2022-10-15T08:21:30.260Z,74.89
2022-10-15T08:24:00.856Z,74.19
2022-10-15T08:26:36.202Z,74.92
2022-10-15T08:29:06.020Z,74.77
2022-10-15T08:31:37.158Z,71.95
2022-10-15T08:34:08.401Z,71.03
2022-10-15T08:36:37.854Z,70.96
2022-10-15T08:39:09.256Z,72.42
2022-10-15T08:41:42.072Z,73.85
2022-10-15T08:44:21.655Z,71.22
2022-10-15T08:46:57.570Z,69.62
2022-10-15T08:49:38.716Z,69.73
2022-10-15T08:52:18.253Z,69.42
2022-10-15T08:54:48.219Z,70.86
2022-10-15T08:57:27.954Z,69.40
2022-10-15T09:00:03.891Z,65.31
2022-10-15T09:02:41.025Z,64.83
2022-10-15T09:05:31.450Z,63.80
2022-10-15T09:08:08.841Z,67.46
2022-10-15T09:10:44.917Z,67.36
2022-10-15T09:13:23.327Z,64.38
2022-10-15T09:15:57.341Z,61.40
2022-10-15T09:18:32.004Z,60.83
2022-10-15T09:21:03.646Z,58.96
2022-10-15T09:23:36.084Z,59.42
2022-10-15T09:26:17.746Z,61.44
2022-10-15T09:28:53.455Z,61.89
2022-10-15T09:31:29.214Z,63.55
2022-10-15T09:34:06.673Z,63.75
2022-10-15T09:36:42.605Z,63.16
2022-10-15T09:39:46.057Z,66.71
2022-10-15T09:42:23.538Z,67.18
2022-10-15T09:44:55.954Z,67.28
2022-10-15T09:47:27.524Z,68.55
2022-10-15T09:50:06.135Z,67.59
2022-10-15T09:53:01.659Z,69.22
2022-10-15T09:55:42.425Z,68.64
2022-10-15T09:58:19.293Z,69.31
2022-10-15T10:00:57.897Z,67.58
2022-10-15T10:03:29.433Z,66.15
2022-10-15T10:06:06.225Z,67.15
2022-10-15T10:08:42.011Z,68.33
2022-10-15T10:11:12.962Z,66.66
2022-10-15T10:13:46.965Z,67.66
2022-10-15T10:16:18.401Z,69.80
2022-10-15T10:19:11.203Z,69.03
2022-10-15T10:21:43.882Z,69.27
2022-10-15T10:24:23.559Z,70.14
2022-10-15T10:26:53.144Z,70.88
2022-10-15T10:29:39.544Z,70.96
2022-10-15T10:32:14.475Z,72.02
2022-10-15T10:34:50.172Z,72.76
2022-10-15T10:37:24.404Z,73.46
2022-10-15T10:39:55.907Z,73.43
2022-10-15T10:42:38.184Z,74.06
2022-10-15T10:45:19.929Z,74.62
2022-10-15T10:47:49.812Z,76.51
2022-10-15T10:50:33.280Z,76.03
2022-10-15T10:53:22.877Z,74.88
2022-10-15T10:55:55.273Z,75.44
2022-10-15T10:58:32.581Z,76.68
2022-10-15T11:01:02.633Z,78.15
2022-10-15T11:03:38.161Z,75.64
2022-10-15T11:06:19.989Z,75.01
2022-10-15T11:09:04.340Z,74.03
2022-10-15T11:11:45.278Z,74.77
2022-10-15T11:14:28.352Z,76.09
2022-10-15T11:17:06.859Z,71.95
2022-10-15T11:22:48.948Z,71.72
2022-10-15T11:25:30.188Z,71.16
2022-10-15T11:28:15.866Z,73.03
2022-10-15T11:30:51.653Z,74.96
2022-10-15T11:33:43.327Z,72.75
2022-10-15T11:36:37.584Z,71.64
2022-10-15T11:39:26.745Z,69.95
2022-10-15T11:42:07.923Z,68.40
2022-10-15T11:44:57.356Z,68.55
2022-10-15T11:47:37.611Z,67.14
2022-10-15T11:50:20.852Z,66.70
2022-10-15T11:53:05.973Z,66.19
2022-10-15T11:55:42.613Z,66.72
2022-10-15T11:58:23.220Z,65.30
2022-10-15T12:00:57.434Z,60.44
2022-10-15T12:03:29.952Z,59.01
2022-10-15T12:06:05.038Z,58.48
2022-10-15T12:08:38.705Z,58.35
2022-10-15T12:11:22.180Z,62.04
2022-10-15T12:14:00.170Z,63.43
2022-10-15T12:16:39.811Z,64.40
2022-10-15T12:19:17.356Z,65.83
2022-10-15T12:22:06.485Z,66.67
2022-10-15T12:24:57.458Z,64.79
2022-10-15T12:27:30.868Z,65.14
2022-10-15T12:30:27.911Z,62.71
2022-10-15T12:32:57.608Z,63.20
2022-10-15T12:35:36.331Z,62.99
2022-10-15T12:38:21.416Z,60.21
2022-10-15T12:41:03.507Z,65.03
2022-10-15T12:43:38.232Z,60.96
2022-10-15T12:46:11.925Z,60.97
2022-10-15T12:48:43.723Z,64.24
2022-10-15T12:51:43.148Z,66.52
2022-10-15T12:54:35.143Z,67.78
2022-10-15T12:57:26.214Z,67.89
2022-10-15T12:59:59.608Z,66.21
2022-10-15T13:02:38.536Z,63.79
2022-10-15T13:05:10.217Z,58.53
2022-10-15T13:07:42.413Z,57.31
2022-10-15T13:10:22.837Z,61.10
2022-10-15T13:12:56.549Z,60.88
2022-10-15T13:15:29.427Z,63.23
2022-10-15T13:18:06.088Z,65.73
2022-10-15T13:20:38.194Z,66.78
2022-10-15T13:23:28.877Z,67.30
2022-10-15T13:26:23.253Z,67.37
2022-10-15T13:28:55.215Z,68.96
2022-10-15T13:31:30.265Z,69.10
2022-10-15T13:34:08.301Z,69.75
2022-10-15T13:36:38.264Z,71.14
2022-10-15T13:39:09.643Z,71.20
2022-10-15T13:41:40.785Z,70.76
2022-10-15T13:44:23.355Z,71.58
2022-10-15T13:46:53.409Z,71.90
2022-10-15T13:49:26.588Z,72.77
2022-10-15T13:51:58.236Z,72.55
2022-10-15T13:54:32.061Z,71.52
2022-10-15T13:57:03.089Z,69.70
2022-10-15T13:59:33.117Z,68.98
2022-10-15T14:02:04.499Z,69.83
2022-10-15T14:04:35.408Z,70.25
2022-10-15T14:07:19.613Z,71.03
2022-10-15T14:09:49.319Z,70.53
2022-10-15T14:12:18.792Z,71.59
2022-10-15T14:14:49.455Z,70.41
2022-10-15T14:17:25.860Z,71.33
2022-10-15T14:20:25.756Z,70.96
2022-10-15T14:22:52.616Z,72.52
2022-10-15T14:25:26.081Z,72.09
2022-10-15T14:27:55.631Z,71.60
2022-10-15T14:30:31.396Z,71.92
2022-10-15T14:33:01.055Z,72.65
2022-10-15T14:35:35.203Z,72.59
2022-10-15T14:38:06.541Z,73.08
2022-10-15T14:40:35.841Z,72.67
2022-10-15T14:43:07.290Z,73.38
2022-10-15T14:45:42.781Z,72.47
2022-10-15T14:48:17.593Z,71.64
2022-10-15T14:50:48.521Z,72.86
2022-10-15T14:53:21.997Z,71.61
2022-10-15T14:55:54.628Z,71.91
2022-10-15T14:58:26.100Z,71.50
2022-10-15T15:01:00.665Z,70.25
2022-10-15T15:03:32.153Z,71.41
2022-10-15T15:06:02.828Z,71.35
2022-10-15T15:08:32.531Z,72.58
2022-10-15T15:11:04.103Z,72.95
2022-10-15T15:13:38.833Z,72.55
2022-10-15T15:16:10.672Z,73.39
2022-10-15T15:18:42.454Z,74.22
2022-10-15T15:21:21.219Z,75.82
2022-10-15T15:23:50.938Z,75.77
2022-10-15T15:26:20.191Z,75.83
2022-10-15T15:28:49.698Z,75.86
2022-10-15T15:31:20.212Z,76.29
2022-10-15T15:33:49.724Z,77.28
2022-10-15T15:36:23.763Z,76.28
2022-10-15T15:38:58.610Z,77.21
2022-10-15T15:41:28.278Z,76.75
2022-10-15T15:43:57.674Z,76.94
2022-10-15T15:46:27.095Z,77.64
2022-10-15T15:48:58.415Z,78.40
2022-10-15T15:51:32.003Z,77.51
2022-10-15T15:54:04.571Z,78.33
2022-10-15T15:56:35.014Z,78.22
2022-10-15T15:59:04.474Z,77.65
2022-10-15T16:01:33.787Z,78.57
2022-10-15T16:04:03.234Z,78.70
2022-10-15T16:06:33.866Z,77.62
2022-10-15T16:09:05.557Z,78.18
2022-10-15T16:11:35.258Z,79.00
2022-10-15T16:14:09.062Z,79.19
2022-10-15T16:16:38.743Z,78.76
2022-10-15T16:19:08.858Z,78.54
2022-10-15T16:21:39.589Z,78.45
2022-10-15T16:24:09.119Z,78.76
2022-10-15T16:26:38.347Z,78.13
2022-10-15T16:29:07.732Z,77.89
2022-10-15T16:31:37.646Z,77.54
2022-10-15T16:34:07.200Z,78.91
2022-10-15T16:36:36.669Z,78.19
2022-10-15T16:39:07.703Z,78.35
2022-10-15T16:41:37.064Z,78.46
2022-10-15T16:44:06.856Z,78.82
2022-10-15T16:46:36.587Z,77.96
2022-10-15T16:49:06.020Z,77.71
2022-10-15T16:51:37.402Z,78.27
2022-10-15T16:54:13.855Z,78.78
2022-10-15T16:56:43.103Z,78.20
2022-10-15T16:59:13.015Z,79.14
2022-10-15T17:01:42.382Z,78.99
2022-10-15T17:04:11.817Z,79.28
2022-10-15T17:06:41.186Z,79.53
2022-10-15T17:09:12.010Z,79.44
2022-10-15T17:11:43.424Z,79.53
2022-10-15T17:14:14.376Z,79.46
2022-10-15T17:16:44.983Z,79.40
2022-10-15T17:19:15.435Z,79.80
2022-10-15T17:21:47.079Z,79.58
2022-10-15T17:24:19.665Z,79.06
2022-10-15T17:26:49.961Z,79.65
2022-10-15T17:29:23.106Z,80.52
2022-10-15T17:31:52.785Z,79.94
2022-10-15T17:34:22.275Z,81.44
2022-10-15T17:36:52.389Z,81.04
2022-10-15T17:39:23.718Z,80.86
2022-10-15T17:41:53.160Z,80.99
2022-10-15T17:44:22.542Z,81.33
2022-10-15T17:46:52.852Z,81.31
2022-10-15T17:49:28.721Z,82.16
2022-10-15T17:51:57.957Z,81.46
2022-10-15T17:54:28.759Z,82.22
2022-10-15T17:56:58.251Z,81.51
2022-10-15T17:59:27.746Z,80.76
2022-10-15T18:01:59.808Z,80.94
2022-10-15T18:04:30.669Z,80.93
2022-10-15T18:07:00.338Z,81.03
2022-10-15T18:09:31.609Z,80.85
2022-10-15T18:12:02.915Z,81.12
2022-10-15T18:14:36.015Z,80.46
2022-10-15T18:17:06.136Z,81.35
2022-10-15T18:19:35.696Z,81.67
2022-10-15T18:22:04.983Z,81.76
2022-10-15T18:24:35.836Z,81.93
2022-10-15T18:27:07.075Z,81.63
2022-10-15T18:29:36.565Z,81.65
2022-10-15T18:32:06.156Z,81.50
2022-10-15T18:34:35.706Z,81.94
2022-10-15T18:37:04.971Z,81.95
2022-10-15T18:39:36.381Z,82.60
2022-10-15T18:42:05.752Z,82.13
2022-10-15T18:44:36.345Z,81.78
2022-10-15T18:47:05.585Z,82.62
2022-10-15T18:49:43.153Z,82.45
2022-10-15T18:52:21.882Z,82.32
2022-10-15T18:55:03.311Z,83.73
2022-10-15T18:57:34.733Z,83.62
2022-10-15T19:00:05.095Z,82.74
2022-10-15T19:02:34.452Z,82.45
2022-10-15T19:05:04.498Z,82.45
2022-10-15T19:07:33.764Z,82.42
2022-10-15T19:10:04.926Z,81.68
2022-10-15T19:12:34.112Z,82.00
2022-10-15T19:15:03.562Z,82.92
2022-10-15T19:17:32.918Z,82.31
2022-10-15T19:20:02.340Z,84.04
2022-10-15T19:22:33.233Z,84.67
2022-10-15T19:25:04.301Z,84.35
2022-10-15T19:27:34.328Z,83.58
2022-10-15T19:30:03.930Z,85.46
2022-10-15T19:32:33.282Z,84.96
2022-10-15T19:35:03.773Z,84.22
2022-10-15T19:37:35.101Z,84.92
2022-10-15T19:40:08.447Z,84.52
2022-10-15T19:42:37.950Z,83.77
2022-10-15T19:45:08.126Z,83.38
2022-10-15T19:47:38.888Z,82.86
2022-10-15T19:50:09.047Z,82.51
2022-10-15T19:52:38.345Z,82.34
2022-10-15T19:55:10.232Z,83.21
2022-10-15T19:57:39.865Z,82.84
2022-10-15T20:00:10.484Z,82.52
2022-10-15T20:02:41.688Z,82.73
2022-10-15T20:05:11.294Z,82.63
2022-10-15T20:07:40.758Z,83.09
2022-10-15T20:10:12.160Z,82.97
2022-10-15T20:12:41.762Z,82.95
2022-10-15T20:15:12.282Z,83.10
2022-10-15T20:17:41.661Z,83.17
2022-10-15T20:20:11.177Z,82.65
2022-10-15T20:22:40.383Z,82.34
2022-10-15T20:25:11.951Z,83.41
2022-10-15T20:27:41.389Z,82.28
2022-10-15T20:30:12.189Z,83.13
2022-10-15T20:32:43.422Z,82.74
2022-10-15T20:35:12.864Z,84.26
2022-10-15T20:37:42.167Z,83.29
2022-10-15T20:40:13.544Z,83.15
2022-10-15T20:42:42.916Z,83.95
2022-10-15T20:45:14.662Z,85.26
2022-10-15T20:47:48.349Z,84.78
2022-10-15T20:50:22.402Z,85.72
2022-10-15T20:52:51.781Z,86.16
2022-10-15T20:55:22.985Z,85.00
2022-10-15T20:57:52.657Z,85.90
2022-10-15T21:00:22.152Z,86.03
2022-10-15T21:02:51.316Z,85.61
2022-10-15T21:05:20.803Z,85.19
2022-10-15T21:07:50.170Z,85.09
2022-10-15T21:10:21.128Z,84.88
2022-10-15T21:12:50.451Z,84.73
2022-10-15T21:15:20.417Z,83.73
2022-10-15T21:17:49.705Z,83.63
2022-10-15T21:20:19.233Z,83.60
2022-10-15T21:22:48.503Z,84.06
2022-10-15T21:25:18.140Z,82.77
2022-10-15T21:27:48.750Z,82.67
2022-10-15T21:30:18.428Z,82.93
2022-10-15T21:32:47.964Z,82.70
2022-10-15T21:35:17.536Z,83.11
2022-10-15T21:37:46.685Z,82.36
2022-10-15T21:40:16.219Z,81.91
2022-10-15T21:42:45.434Z,82.27
2022-10-15T21:45:16.358Z,82.64
2022-10-15T21:47:45.561Z,82.61
2022-10-15T21:50:15.005Z,82.74
2022-10-15T21:52:44.292Z,83.41
2022-10-15T21:55:13.899Z,83.04
2022-10-15T21:57:43.070Z,83.42
2022-10-15T22:00:17.635Z,83.31
2022-10-15T22:02:51.641Z,83.50
2022-10-15T22:05:21.143Z,82.63
2022-10-15T22:07:50.298Z,83.12
2022-10-15T22:10:19.809Z,83.04
2022-10-15T22:12:53.504Z,82.58
2022-10-15T22:15:24.267Z,82.92
2022-10-15T22:17:53.424Z,83.42
2022-10-15T22:20:23.831Z,83.57
2022-10-15T22:22:54.680Z,83.33
2022-10-15T22:25:24.233Z,84.38
2022-10-15T22:27:53.435Z,84.01
2022-10-15T22:30:24.208Z,82.97
2022-10-15T22:32:54.329Z,82.12
2022-10-15T22:35:23.773Z,82.85
2022-10-15T22:37:55.214Z,82.36
2022-10-15T22:40:25.436Z,82.56
2022-10-15T22:42:54.631Z,82.87
2022-10-15T22:45:25.395Z,82.49
2022-10-15T22:47:54.728Z,82.56
2022-10-15T22:50:24.473Z,82.16
2022-10-15T22:52:53.698Z,82.81
2022-10-15T22:55:23.109Z,82.05
2022-10-15T22:57:53.034Z,81.48
2022-10-15T23:00:24.242Z,82.57
2022-10-15T23:02:53.660Z,82.63
2022-10-15T23:05:23.070Z,82.53
2022-10-15T23:07:52.375Z,81.85
2022-10-15T23:10:21.844Z,81.85
2022-10-15T23:12:51.055Z,81.72
2022-10-15T23:15:20.694Z,82.40
2022-10-15T23:17:51.268Z,82.32
2022-10-15T23:20:20.660Z,82.60
2022-10-15T23:22:50.009Z,82.54
2022-10-15T23:25:19.430Z,82.34
2022-10-15T23:27:48.820Z,82.06
2022-10-15T23:30:24.620Z,82.51
2022-10-15T23:32:55.782Z,82.18
2022-10-15T23:35:25.242Z,82.13
2022-10-15T23:37:54.568Z,82.11
2022-10-15T23:40:24.032Z,82.75
2022-10-15T23:42:53.195Z,82.34
2022-10-15T23:45:22.598Z,82.56
2022-10-15T23:47:51.789Z,82.65
2022-10-15T23:50:22.707Z,82.75
2022-10-15T23:52:51.902Z,82.81
2022-10-15T23:55:21.425Z,83.78
2022-10-15T23:57:50.893Z,83.60
